sensor_id;sensor_type;location;lat;lon;timestamp;temperature;humidity
16243;DHT22;11719;51.052;6.982;2024-02-04T00:00:41;14.40;99.90
16243;DHT22;11719;51.052;6.982;2024-02-04T00:03:07;14.30;99.90
16243;DHT22;11719;51.052;6.982;2024-02-04T00:05:53;14.20;99.90
16243;DHT22;11719;51.052;6.982;2024-02-04T00:08:46;14.20;99.90
16243;DHT22;11719;51.052;6.982;2024-02-04T00:11:16;14.30;99.90
16243;DHT22;11719;51.052;6.982;2024-02-04T00:13:46;14.30;99.90
16243;DHT22;11719;51.052;6.982;2024-02-04T00:16:24;14.30;99.90
16243;DHT22;11719;51.052;6.982;2024-02-04T00:18:54;14.50;99.90
16243;DHT22;11719;51.052;6.982;2024-02-04T00:21:20;14.40;99.90
16243;DHT22;11719;51.052;6.982;2024-02-04T00:23:45;14.60;99.90
16243;DHT22;11719;51.052;6.982;2024-02-04T00:26:23;14.60;99.90
16243;DHT22;11719;51.052;6.982;2024-02-04T00:29:03;14.50;99.90
16243;DHT22;11719;51.052;6.982;2024-02-04T00:31:37;14.50;99.90
16243;DHT22;11719;51.052;6.982;2024-02-04T00:34:16;14.50;99.90
16243;DHT22;11719;51.052;6.982;2024-02-04T00:36:42;14.50;99.90
16243;DHT22;11719;51.052;6.982;2024-02-04T00:39:08;14.20;99.90
16243;DHT22;11719;51.052;6.982;2024-02-04T00:41:34;14.10;99.90
16243;DHT22;11719;51.052;6.982;2024-02-04T00:44:05;14.10;99.90
16243;DHT22;11719;51.052;6.982;2024-02-04T00:46:40;13.90;99.90
16243;DHT22;11719;51.052;6.982;2024-02-04T00:49:06;13.80;99.90
16243;DHT22;11719;51.052;6.982;2024-02-04T00:51:40;13.70;99.90
16243;DHT22;11719;51.052;6.982;2024-02-04T00:54:05;13.70;99.90
16243;DHT22;11719;51.052;6.982;2024-02-04T00:56:31;13.50;99.90
16243;DHT22;11719;51.052;6.982;2024-02-04T00:58:57;13.60;99.90
16243;DHT22;11719;51.052;6.982;2024-02-04T01:01:25;13.50;99.90
16243;DHT22;11719;51.052;6.982;2024-02-04T01:03:53;13.50;99.90
16243;DHT22;11719;51.052;6.982;2024-02-04T01:06:25;13.50;99.90
16243;DHT22;11719;51.052;6.982;2024-02-04T01:08:53;13.60;99.90
16243;DHT22;11719;51.052;6.982;2024-02-04T01:11:28;13.60;99.90
16243;DHT22;11719;51.052;6.982;2024-02-04T01:14:10;13.60;99.90
16243;DHT22;11719;51.052;6.982;2024-02-04T01:16:37;13.50;99.90
16243;DHT22;11719;51.052;6.982;2024-02-04T01:19:10;13.60;99.90
16243;DHT22;11719;51.052;6.982;2024-02-04T01:21:37;13.60;99.90
16243;DHT22;11719;51.052;6.982;2024-02-04T01:24:02;13.60;99.90
16243;DHT22;11719;51.052;6.982;2024-02-04T01:26:28;13.60;99.90
16243;DHT22;11719;51.052;6.982;2024-02-04T01:29:01;13.70;99.90
16243;DHT22;11719;51.052;6.982;2024-02-04T01:31:34;13.90;99.90
16243;DHT22;11719;51.052;6.982;2024-02-04T01:34:00;13.80;99.90
16243;DHT22;11719;51.052;6.982;2024-02-04T01:36:25;13.90;99.90
16243;DHT22;11719;51.052;6.982;2024-02-04T01:38:51;13.90;99.90
16243;DHT22;11719;51.052;6.982;2024-02-04T01:41:17;14.10;99.90
16243;DHT22;11719;51.052;6.982;2024-02-04T01:44:05;13.90;99.90
16243;DHT22;11719;51.052;6.982;2024-02-04T01:46:31;13.90;99.90
16243;DHT22;11719;51.052;6.982;2024-02-04T01:48:57;14.00;99.90
16243;DHT22;11719;51.052;6.982;2024-02-04T01:51:28;14.00;99.90
16243;DHT22;11719;51.052;6.982;2024-02-04T01:53:54;14.10;99.90
16243;DHT22;11719;51.052;6.982;2024-02-04T01:56:24;14.00;99.90
16243;DHT22;11719;51.052;6.982;2024-02-04T01:58:50;14.20;99.90
16243;DHT22;11719;51.052;6.982;2024-02-04T02:01:16;14.10;99.90
16243;DHT22;11719;51.052;6.982;2024-02-04T02:03:42;14.20;99.90
16243;DHT22;11719;51.052;6.982;2024-02-04T02:06:24;14.10;99.90
16243;DHT22;11719;51.052;6.982;2024-02-04T02:08:55;14.20;99.90
16243;DHT22;11719;51.052;6.982;2024-02-04T02:11:42;14.20;99.90
16243;DHT22;11719;51.052;6.982;2024-02-04T02:14:14;14.00;99.90
16243;DHT22;11719;51.052;6.982;2024-02-04T02:16:50;14.00;99.90
16243;DHT22;11719;51.052;6.982;2024-02-04T02:22:49;14.10;99.90
16243;DHT22;11719;51.052;6.982;2024-02-04T02:25:20;14.20;99.90
16243;DHT22;11719;51.052;6.982;2024-02-04T02:27:49;14.10;99.90
16243;DHT22;11719;51.052;6.982;2024-02-04T02:30:16;14.10;99.90
16243;DHT22;11719;51.052;6.982;2024-02-04T02:32:49;14.10;99.90
16243;DHT22;11719;51.052;6.982;2024-02-04T02:35:16;13.90;99.90
16243;DHT22;11719;51.052;6.982;2024-02-04T02:40:47;13.70;99.90
16243;DHT22;11719;51.052;6.982;2024-02-04T02:43:18;13.60;99.90
16243;DHT22;11719;51.052;6.982;2024-02-04T02:45:44;13.60;99.90
16243;DHT22;11719;51.052;6.982;2024-02-04T02:48:21;13.50;99.90
16243;DHT22;11719;51.052;6.982;2024-02-04T02:50:47;13.40;99.90
16243;DHT22;11719;51.052;6.982;2024-02-04T02:53:20;13.60;99.90
16243;DHT22;11719;51.052;6.982;2024-02-04T02:55:46;13.60;99.90
16243;DHT22;11719;51.052;6.982;2024-02-04T02:58:13;13.50;99.90
16243;DHT22;11719;51.052;6.982;2024-02-04T03:00:41;13.60;99.90
16243;DHT22;11719;51.052;6.982;2024-02-04T03:03:06;13.60;99.90
16243;DHT22;11719;51.052;6.982;2024-02-04T03:05:32;13.50;99.90
16243;DHT22;11719;51.052;6.982;2024-02-04T03:08:08;13.60;99.90
16243;DHT22;11719;51.052;6.982;2024-02-04T03:10:36;13.70;99.90
16243;DHT22;11719;51.052;6.982;2024-02-04T03:13:02;13.90;99.90
16243;DHT22;11719;51.052;6.982;2024-02-04T03:15:31;13.90;99.90
16243;DHT22;11719;51.052;6.982;2024-02-04T03:17:57;13.80;99.90
16243;DHT22;11719;51.052;6.982;2024-02-04T03:20:25;13.90;99.90
16243;DHT22;11719;51.052;6.982;2024-02-04T03:22:57;13.80;99.90
16243;DHT22;11719;51.052;6.982;2024-02-04T03:25:22;13.80;99.90
16243;DHT22;11719;51.052;6.982;2024-02-04T03:27:52;13.90;99.90
16243;DHT22;11719;51.052;6.982;2024-02-04T03:30:21;14.00;99.90
16243;DHT22;11719;51.052;6.982;2024-02-04T03:32:53;14.00;99.90
16243;DHT22;11719;51.052;6.982;2024-02-04T03:35:19;14.10;99.90
16243;DHT22;11719;51.052;6.982;2024-02-04T03:37:45;13.90;99.90
16243;DHT22;11719;51.052;6.982;2024-02-04T03:40:16;13.80;99.90
16243;DHT22;11719;51.052;6.982;2024-02-04T03:42:44;13.70;99.90
16243;DHT22;11719;51.052;6.982;2024-02-04T03:45:17;13.90;99.90
16243;DHT22;11719;51.052;6.982;2024-02-04T03:47:42;13.90;99.90
16243;DHT22;11719;51.052;6.982;2024-02-04T03:50:08;13.90;99.90
16243;DHT22;11719;51.052;6.982;2024-02-04T03:52:34;13.90;99.90
16243;DHT22;11719;51.052;6.982;2024-02-04T03:55:00;14.00;99.90
16243;DHT22;11719;51.052;6.982;2024-02-04T03:57:29;14.00;99.90
16243;DHT22;11719;51.052;6.982;2024-02-04T03:59:58;14.10;99.90
16243;DHT22;11719;51.052;6.982;2024-02-04T04:02:31;14.10;99.90
16243;DHT22;11719;51.052;6.982;2024-02-04T04:04:57;14.00;99.90
16243;DHT22;11719;51.052;6.982;2024-02-04T04:07:23;13.90;99.90
16243;DHT22;11719;51.052;6.982;2024-02-04T04:09:48;13.90;99.90
16243;DHT22;11719;51.052;6.982;2024-02-04T04:12:14;14.00;99.90
16243;DHT22;11719;51.052;6.982;2024-02-04T04:14:45;13.90;99.90
16243;DHT22;11719;51.052;6.982;2024-02-04T04:17:15;13.90;99.90
16243;DHT22;11719;51.052;6.982;2024-02-04T04:19:41;14.00;99.90
16243;DHT22;11719;51.052;6.982;2024-02-04T04:22:07;14.00;99.90
16243;DHT22;11719;51.052;6.982;2024-02-04T04:24:33;14.00;99.90
16243;DHT22;11719;51.052;6.982;2024-02-04T04:27:07;14.00;99.90
16243;DHT22;11719;51.052;6.982;2024-02-04T04:29:39;13.90;99.90
16243;DHT22;11719;51.052;6.982;2024-02-04T04:32:12;13.90;99.90
16243;DHT22;11719;51.052;6.982;2024-02-04T04:34:44;13.90;99.90
16243;DHT22;11719;51.052;6.982;2024-02-04T04:37:12;14.00;99.90
16243;DHT22;11719;51.052;6.982;2024-02-04T04:39:48;14.10;99.90
16243;DHT22;11719;51.052;6.982;2024-02-04T04:42:20;14.10;99.90
16243;DHT22;11719;51.052;6.982;2024-02-04T04:44:57;14.10;99.90
16243;DHT22;11719;51.052;6.982;2024-02-04T04:47:22;14.10;99.90
16243;DHT22;11719;51.052;6.982;2024-02-04T04:49:56;14.00;99.90
16243;DHT22;11719;51.052;6.982;2024-02-04T04:52:22;14.00;99.90
16243;DHT22;11719;51.052;6.982;2024-02-04T04:54:51;14.10;99.90
16243;DHT22;11719;51.052;6.982;2024-02-04T04:57:17;14.00;99.90
16243;DHT22;11719;51.052;6.982;2024-02-04T04:59:43;14.10;99.90
16243;DHT22;11719;51.052;6.982;2024-02-04T05:02:09;14.20;99.90
16243;DHT22;11719;51.052;6.982;2024-02-04T05:04:36;14.30;99.90
16243;DHT22;11719;51.052;6.982;2024-02-04T05:07:02;14.40;99.90
16243;DHT22;11719;51.052;6.982;2024-02-04T05:09:36;14.40;99.90
16243;DHT22;11719;51.052;6.982;2024-02-04T05:12:10;14.40;99.90
16243;DHT22;11719;51.052;6.982;2024-02-04T05:14:36;14.40;99.90
16243;DHT22;11719;51.052;6.982;2024-02-04T05:17:04;14.40;99.90
16243;DHT22;11719;51.052;6.982;2024-02-04T05:19:36;14.40;99.90
16243;DHT22;11719;51.052;6.982;2024-02-04T05:22:04;14.40;99.90
16243;DHT22;11719;51.052;6.982;2024-02-04T05:24:30;14.40;99.90
16243;DHT22;11719;51.052;6.982;2024-02-04T05:26:56;14.40;99.90
16243;DHT22;11719;51.052;6.982;2024-02-04T05:29:22;14.50;99.90
16243;DHT22;11719;51.052;6.982;2024-02-04T05:31:47;14.50;99.90
16243;DHT22;11719;51.052;6.982;2024-02-04T05:34:24;14.30;99.90
16243;DHT22;11719;51.052;6.982;2024-02-04T05:36:58;14.40;99.90
16243;DHT22;11719;51.052;6.982;2024-02-04T05:39:26;14.40;99.90
16243;DHT22;11719;51.052;6.982;2024-02-04T05:41:58;14.40;99.90
16243;DHT22;11719;51.052;6.982;2024-02-04T05:44:24;14.40;99.90
16243;DHT22;11719;51.052;6.982;2024-02-04T05:46:49;14.40;99.90
16243;DHT22;11719;51.052;6.982;2024-02-04T05:49:17;14.50;99.90
16243;DHT22;11719;51.052;6.982;2024-02-04T05:51:43;14.40;99.90
16243;DHT22;11719;51.052;6.982;2024-02-04T05:54:09;14.50;99.90
16243;DHT22;11719;51.052;6.982;2024-02-04T05:56:35;14.50;99.90
16243;DHT22;11719;51.052;6.982;2024-02-04T05:59:03;14.40;99.90
16243;DHT22;11719;51.052;6.982;2024-02-04T06:01:42;14.40;99.90
16243;DHT22;11719;51.052;6.982;2024-02-04T06:04:08;14.50;99.90
16243;DHT22;11719;51.052;6.982;2024-02-04T06:06:37;14.50;99.90
16243;DHT22;11719;51.052;6.982;2024-02-04T06:09:07;14.60;99.90
16243;DHT22;11719;51.052;6.982;2024-02-04T06:11:33;14.60;99.90
16243;DHT22;11719;51.052;6.982;2024-02-04T06:13:59;14.60;99.90
16243;DHT22;11719;51.052;6.982;2024-02-04T06:16:40;14.70;99.90
16243;DHT22;11719;51.052;6.982;2024-02-04T06:19:06;14.50;99.90
16243;DHT22;11719;51.052;6.982;2024-02-04T06:21:34;14.50;99.90
16243;DHT22;11719;51.052;6.982;2024-02-04T06:24:00;14.50;99.90
16243;DHT22;11719;51.052;6.982;2024-02-04T06:26:53;14.50;99.90
16243;DHT22;11719;51.052;6.982;2024-02-04T06:29:28;14.50;99.90
16243;DHT22;11719;51.052;6.982;2024-02-04T06:32:12;14.60;99.90
16243;DHT22;11719;51.052;6.982;2024-02-04T06:34:39;14.60;99.90
16243;DHT22;11719;51.052;6.982;2024-02-04T06:37:04;14.60;99.90
16243;DHT22;11719;51.052;6.982;2024-02-04T06:39:32;14.70;99.90
16243;DHT22;11719;51.052;6.982;2024-02-04T06:42:15;14.60;99.90
16243;DHT22;11719;51.052;6.982;2024-02-04T06:44:59;14.60;99.90
16243;DHT22;11719;51.052;6.982;2024-02-04T06:47:28;14.60;99.90
16243;DHT22;11719;51.052;6.982;2024-02-04T06:49:54;14.50;99.90
16243;DHT22;11719;51.052;6.982;2024-02-04T06:52:22;14.50;99.90
16243;DHT22;11719;51.052;6.982;2024-02-04T06:54:48;14.50;99.90
16243;DHT22;11719;51.052;6.982;2024-02-04T06:57:13;14.30;99.90
16243;DHT22;11719;51.052;6.982;2024-02-04T06:59:39;14.40;99.90
16243;DHT22;11719;51.052;6.982;2024-02-04T07:02:14;14.40;99.90
16243;DHT22;11719;51.052;6.982;2024-02-04T07:04:44;14.50;99.90
16243;DHT22;11719;51.052;6.982;2024-02-04T07:07:09;14.60;99.90
16243;DHT22;11719;51.052;6.982;2024-02-04T07:09:43;14.50;99.90
16243;DHT22;11719;51.052;6.982;2024-02-04T07:12:31;14.50;99.90
16243;DHT22;11719;51.052;6.982;2024-02-04T07:15:01;14.30;99.90
16243;DHT22;11719;51.052;6.982;2024-02-04T07:17:27;14.20;99.90
16243;DHT22;11719;51.052;6.982;2024-02-04T07:19:56;14.20;99.90
16243;DHT22;11719;51.052;6.982;2024-02-04T07:22:37;14.20;99.90
16243;DHT22;11719;51.052;6.982;2024-02-04T07:25:08;14.10;99.90
16243;DHT22;11719;51.052;6.982;2024-02-04T07:27:34;14.10;99.90
16243;DHT22;11719;51.052;6.982;2024-02-04T07:30:03;14.00;99.90
16243;DHT22;11719;51.052;6.982;2024-02-04T07:32:49;14.10;99.90
16243;DHT22;11719;51.052;6.982;2024-02-04T07:35:21;14.20;99.90
16243;DHT22;11719;51.052;6.982;2024-02-04T07:37:53;14.10;99.90
16243;DHT22;11719;51.052;6.982;2024-02-04T07:40:22;14.30;99.90
16243;DHT22;11719;51.052;6.982;2024-02-04T07:42:50;14.40;99.90
16243;DHT22;11719;51.052;6.982;2024-02-04T07:45:16;14.50;99.90
16243;DHT22;11719;51.052;6.982;2024-02-04T07:47:41;14.60;99.90
16243;DHT22;11719;51.052;6.982;2024-02-04T07:50:11;14.70;99.90
16243;DHT22;11719;51.052;6.982;2024-02-04T07:52:36;14.70;99.90
16243;DHT22;11719;51.052;6.982;2024-02-04T07:55:02;14.60;99.90
16243;DHT22;11719;51.052;6.982;2024-02-04T07:57:37;14.60;99.90
16243;DHT22;11719;51.052;6.982;2024-02-04T08:00:03;14.70;99.90
16243;DHT22;11719;51.052;6.982;2024-02-04T08:02:36;14.50;99.90
16243;DHT22;11719;51.052;6.982;2024-02-04T08:05:06;14.50;99.90
16243;DHT22;11719;51.052;6.982;2024-02-04T08:07:32;14.50;99.90
16243;DHT22;11719;51.052;6.982;2024-02-04T08:09:58;14.60;99.90
16243;DHT22;11719;51.052;6.982;2024-02-04T08:12:23;14.60;99.90
16243;DHT22;11719;51.052;6.982;2024-02-04T08:14:49;14.60;99.90
16243;DHT22;11719;51.052;6.982;2024-02-04T08:17:22;14.50;99.90
16243;DHT22;11719;51.052;6.982;2024-02-04T08:19:52;14.50;99.90
16243;DHT22;11719;51.052;6.982;2024-02-04T08:22:21;14.50;99.90
16243;DHT22;11719;51.052;6.982;2024-02-04T08:24:46;14.40;99.90
16243;DHT22;11719;51.052;6.982;2024-02-04T08:27:21;14.40;99.90
16243;DHT22;11719;51.052;6.982;2024-02-04T08:29:46;14.40;99.90
16243;DHT22;11719;51.052;6.982;2024-02-04T08:32:12;14.40;99.90
16243;DHT22;11719;51.052;6.982;2024-02-04T08:34:46;14.30;99.90
16243;DHT22;11719;51.052;6.982;2024-02-04T08:37:11;14.30;99.90
16243;DHT22;11719;51.052;6.982;2024-02-04T08:39:45;14.40;99.90
16243;DHT22;11719;51.052;6.982;2024-02-04T08:42:11;14.40;99.90
16243;DHT22;11719;51.052;6.982;2024-02-04T08:44:37;14.40;99.90
16243;DHT22;11719;51.052;6.982;2024-02-04T08:47:10;14.40;99.90
16243;DHT22;11719;51.052;6.982;2024-02-04T08:49:58;14.20;99.90
16243;DHT22;11719;51.052;6.982;2024-02-04T08:52:24;14.40;99.90
16243;DHT22;11719;51.052;6.982;2024-02-04T08:54:56;14.30;99.90
16243;DHT22;11719;51.052;6.982;2024-02-04T08:57:32;14.30;99.90
16243;DHT22;11719;51.052;6.982;2024-02-04T09:00:01;14.30;99.90
16243;DHT22;11719;51.052;6.982;2024-02-04T09:02:34;14.30;99.90
16243;DHT22;11719;51.052;6.982;2024-02-04T09:05:05;14.30;99.90
16243;DHT22;11719;51.052;6.982;2024-02-04T09:07:50;14.30;99.90
16243;DHT22;11719;51.052;6.982;2024-02-04T09:10:27;14.30;99.90
16243;DHT22;11719;51.052;6.982;2024-02-04T09:13:07;14.40;99.90
16243;DHT22;11719;51.052;6.982;2024-02-04T09:16:02;14.30;99.90
16243;DHT22;11719;51.052;6.982;2024-02-04T09:18:45;14.30;99.90
16243;DHT22;11719;51.052;6.982;2024-02-04T09:21:48;14.40;99.90
16243;DHT22;11719;51.052;6.982;2024-02-04T09:24:27;14.50;99.90
16243;DHT22;11719;51.052;6.982;2024-02-04T09:27:07;14.50;99.90
16243;DHT22;11719;51.052;6.982;2024-02-04T09:29:33;14.30;99.90
16243;DHT22;11719;51.052;6.982;2024-02-04T09:31:59;14.30;99.90
16243;DHT22;11719;51.052;6.982;2024-02-04T09:34:24;14.30;99.90
16243;DHT22;11719;51.052;6.982;2024-02-04T09:36:50;14.40;99.90
16243;DHT22;11719;51.052;6.982;2024-02-04T09:39:19;14.40;99.90
16243;DHT22;11719;51.052;6.982;2024-02-04T09:41:44;14.40;99.90
16243;DHT22;11719;51.052;6.982;2024-02-04T09:44:13;14.40;99.90
16243;DHT22;11719;51.052;6.982;2024-02-04T09:46:39;14.40;99.90
16243;DHT22;11719;51.052;6.982;2024-02-04T09:49:08;14.50;99.90
16243;DHT22;11719;51.052;6.982;2024-02-04T09:51:35;14.40;99.90
16243;DHT22;11719;51.052;6.982;2024-02-04T09:54:04;14.30;99.90
16243;DHT22;11719;51.052;6.982;2024-02-04T09:56:33;14.40;99.90
16243;DHT22;11719;51.052;6.982;2024-02-04T09:59:04;14.40;99.90
16243;DHT22;11719;51.052;6.982;2024-02-04T10:01:33;14.50;99.90
16243;DHT22;11719;51.052;6.982;2024-02-04T10:03:59;14.60;99.90
16243;DHT22;11719;51.052;6.982;2024-02-04T10:06:25;14.50;99.90
16243;DHT22;11719;51.052;6.982;2024-02-04T10:08:53;14.50;99.90
16243;DHT22;11719;51.052;6.982;2024-02-04T10:11:19;14.60;99.90
16243;DHT22;11719;51.052;6.982;2024-02-04T10:13:48;14.70;99.90
16243;DHT22;11719;51.052;6.982;2024-02-04T10:16:15;14.70;99.90
16243;DHT22;11719;51.052;6.982;2024-02-04T10:18:51;14.60;99.90
16243;DHT22;11719;51.052;6.982;2024-02-04T10:21:23;14.60;99.90
16243;DHT22;11719;51.052;6.982;2024-02-04T10:23:50;14.60;99.90
16243;DHT22;11719;51.052;6.982;2024-02-04T10:26:28;14.50;99.90
16243;DHT22;11719;51.052;6.982;2024-02-04T10:29:03;14.60;99.90
16243;DHT22;11719;51.052;6.982;2024-02-04T10:31:29;14.60;99.90
16243;DHT22;11719;51.052;6.982;2024-02-04T10:33:56;14.60;99.90
16243;DHT22;11719;51.052;6.982;2024-02-04T10:36:22;14.60;99.90
16243;DHT22;11719;51.052;6.982;2024-02-04T10:38:48;14.60;99.90
16243;DHT22;11719;51.052;6.982;2024-02-04T10:41:15;14.70;99.90
16243;DHT22;11719;51.052;6.982;2024-02-04T10:43:44;14.60;99.90
16243;DHT22;11719;51.052;6.982;2024-02-04T10:46:18;14.50;99.90
16243;DHT22;11719;51.052;6.982;2024-02-04T10:48:52;14.50;99.90
16243;DHT22;11719;51.052;6.982;2024-02-04T10:51:26;14.50;99.90
16243;DHT22;11719;51.052;6.982;2024-02-04T10:53:55;14.60;99.90
16243;DHT22;11719;51.052;6.982;2024-02-04T10:56:30;14.70;99.90
16243;DHT22;11719;51.052;6.982;2024-02-04T10:59:07;14.50;99.90
16243;DHT22;11719;51.052;6.982;2024-02-04T11:01:40;14.60;99.90
16243;DHT22;11719;51.052;6.982;2024-02-04T11:04:11;14.60;99.90
16243;DHT22;11719;51.052;6.982;2024-02-04T11:06:38;14.50;99.90
16243;DHT22;11719;51.052;6.982;2024-02-04T11:09:12;14.40;99.90
16243;DHT22;11719;51.052;6.982;2024-02-04T11:11:41;14.40;99.90
16243;DHT22;11719;51.052;6.982;2024-02-04T11:14:17;14.30;99.90
16243;DHT22;11719;51.052;6.982;2024-02-04T11:22:29;14.30;99.90
16243;DHT22;11719;51.052;6.982;2024-02-04T11:28:12;14.30;99.90
16243;DHT22;11719;51.052;6.982;2024-02-04T11:30:39;14.30;99.90
16243;DHT22;11719;51.052;6.982;2024-02-04T11:33:05;14.10;99.90
16243;DHT22;11719;51.052;6.982;2024-02-04T11:35:35;14.30;99.90
16243;DHT22;11719;51.052;6.982;2024-02-04T11:38:03;14.20;99.90
16243;DHT22;11719;51.052;6.982;2024-02-04T11:40:37;14.30;99.90
16243;DHT22;11719;51.052;6.982;2024-02-04T11:43:14;14.40;99.90
16243;DHT22;11719;51.052;6.982;2024-02-04T11:45:44;14.50;99.90
16243;DHT22;11719;51.052;6.982;2024-02-04T11:48:11;14.50;99.90
16243;DHT22;11719;51.052;6.982;2024-02-04T11:50:37;14.50;99.90
16243;DHT22;11719;51.052;6.982;2024-02-04T11:53:10;14.40;99.90
16243;DHT22;11719;51.052;6.982;2024-02-04T11:55:41;14.40;99.90
16243;DHT22;11719;51.052;6.982;2024-02-04T11:58:07;14.40;99.90
16243;DHT22;11719;51.052;6.982;2024-02-04T12:00:37;14.40;99.90
16243;DHT22;11719;51.052;6.982;2024-02-04T12:03:04;14.30;99.90
16243;DHT22;11719;51.052;6.982;2024-02-04T12:05:32;14.30;99.90
16243;DHT22;11719;51.052;6.982;2024-02-04T12:08:03;14.20;99.90
16243;DHT22;11719;51.052;6.982;2024-02-04T12:10:31;14.20;99.90
16243;DHT22;11719;51.052;6.982;2024-02-04T12:13:03;14.20;99.90
16243;DHT22;11719;51.052;6.982;2024-02-04T12:15:30;14.30;99.90
16243;DHT22;11719;51.052;6.982;2024-02-04T12:18:04;14.30;99.90
16243;DHT22;11719;51.052;6.982;2024-02-04T12:20:31;14.40;99.90
16243;DHT22;11719;51.052;6.982;2024-02-04T12:22:57;14.40;99.90
16243;DHT22;11719;51.052;6.982;2024-02-04T12:25:23;14.40;99.90
16243;DHT22;11719;51.052;6.982;2024-02-04T12:27:55;14.40;99.90
16243;DHT22;11719;51.052;6.982;2024-02-04T12:30:20;14.50;99.90
16243;DHT22;11719;51.052;6.982;2024-02-04T12:32:59;14.60;99.90
16243;DHT22;11719;51.052;6.982;2024-02-04T12:35:26;14.50;99.90
16243;DHT22;11719;51.052;6.982;2024-02-04T12:37:56;14.40;99.90
16243;DHT22;11719;51.052;6.982;2024-02-04T12:40:23;14.40;99.90
16243;DHT22;11719;51.052;6.982;2024-02-04T12:42:59;14.40;99.90
16243;DHT22;11719;51.052;6.982;2024-02-04T12:45:27;14.40;99.90
16243;DHT22;11719;51.052;6.982;2024-02-04T12:47:57;14.40;99.90
16243;DHT22;11719;51.052;6.982;2024-02-04T12:50:26;14.40;99.90
16243;DHT22;11719;51.052;6.982;2024-02-04T12:53:06;14.50;99.90
16243;DHT22;11719;51.052;6.982;2024-02-04T12:55:34;14.50;99.90
16243;DHT22;11719;51.052;6.982;2024-02-04T12:58:11;14.40;99.90
16243;DHT22;11719;51.052;6.982;2024-02-04T13:00:40;14.30;99.90
16243;DHT22;11719;51.052;6.982;2024-02-04T13:03:09;14.30;99.90
16243;DHT22;11719;51.052;6.982;2024-02-04T13:05:36;14.40;99.90
16243;DHT22;11719;51.052;6.982;2024-02-04T13:08:03;14.40;99.90
16243;DHT22;11719;51.052;6.982;2024-02-04T13:10:34;14.30;99.90
16243;DHT22;11719;51.052;6.982;2024-02-04T13:13:03;14.30;99.90
16243;DHT22;11719;51.052;6.982;2024-02-04T13:15:33;14.30;99.90
16243;DHT22;11719;51.052;6.982;2024-02-04T13:18:05;14.20;99.90
16243;DHT22;11719;51.052;6.982;2024-02-04T13:20:31;14.20;99.90
16243;DHT22;11719;51.052;6.982;2024-02-04T13:22:57;14.30;99.90
16243;DHT22;11719;51.052;6.982;2024-02-04T13:25:29;14.40;99.90
16243;DHT22;11719;51.052;6.982;2024-02-04T13:27:54;14.30;99.90
16243;DHT22;11719;51.052;6.982;2024-02-04T13:30:20;14.40;99.90
16243;DHT22;11719;51.052;6.982;2024-02-04T13:32:49;14.40;99.90
16243;DHT22;11719;51.052;6.982;2024-02-04T13:35:16;14.40;99.90
16243;DHT22;11719;51.052;6.982;2024-02-04T13:37:44;14.40;99.90
16243;DHT22;11719;51.052;6.982;2024-02-04T13:40:18;14.50;99.90
16243;DHT22;11719;51.052;6.982;2024-02-04T13:42:45;14.50;99.90
16243;DHT22;11719;51.052;6.982;2024-02-04T13:45:11;14.50;99.90
16243;DHT22;11719;51.052;6.982;2024-02-04T13:47:41;14.40;99.90
16243;DHT22;11719;51.052;6.982;2024-02-04T13:50:12;14.50;99.90
16243;DHT22;11719;51.052;6.982;2024-02-04T13:52:38;14.60;99.90
16243;DHT22;11719;51.052;6.982;2024-02-04T13:55:05;14.70;99.90
16243;DHT22;11719;51.052;6.982;2024-02-04T13:57:32;14.70;99.90
16243;DHT22;11719;51.052;6.982;2024-02-04T13:59:59;14.60;99.90
16243;DHT22;11719;51.052;6.982;2024-02-04T14:02:25;14.60;99.90
16243;DHT22;11719;51.052;6.982;2024-02-04T14:04:52;14.40;99.90
16243;DHT22;11719;51.052;6.982;2024-02-04T14:07:18;14.50;99.90
16243;DHT22;11719;51.052;6.982;2024-02-04T14:09:45;14.40;99.90
16243;DHT22;11719;51.052;6.982;2024-02-04T14:12:12;14.50;99.90
16243;DHT22;11719;51.052;6.982;2024-02-04T14:14:43;14.40;99.90
16243;DHT22;11719;51.052;6.982;2024-02-04T14:17:09;14.50;99.90
16243;DHT22;11719;51.052;6.982;2024-02-04T14:19:35;14.50;99.90
16243;DHT22;11719;51.052;6.982;2024-02-04T14:22:04;14.50;99.90
16243;DHT22;11719;51.052;6.982;2024-02-04T14:24:30;14.60;99.90
16243;DHT22;11719;51.052;6.982;2024-02-04T14:26:57;14.60;99.90
16243;DHT22;11719;51.052;6.982;2024-02-04T14:29:24;14.70;99.90
16243;DHT22;11719;51.052;6.982;2024-02-04T14:31:51;14.60;99.90
16243;DHT22;11719;51.052;6.982;2024-02-04T14:34:17;14.60;99.90
16243;DHT22;11719;51.052;6.982;2024-02-04T14:36:43;14.60;99.90
16243;DHT22;11719;51.052;6.982;2024-02-04T14:39:09;14.60;99.90
16243;DHT22;11719;51.052;6.982;2024-02-04T14:41:38;14.60;99.90
16243;DHT22;11719;51.052;6.982;2024-02-04T14:44:04;14.50;99.90
16243;DHT22;11719;51.052;6.982;2024-02-04T14:46:29;14.40;99.90
16243;DHT22;11719;51.052;6.982;2024-02-04T14:48:55;14.40;99.90
16243;DHT22;11719;51.052;6.982;2024-02-04T14:51:21;14.50;99.90
16243;DHT22;11719;51.052;6.982;2024-02-04T14:53:47;14.50;99.90
16243;DHT22;11719;51.052;6.982;2024-02-04T14:56:15;14.50;99.90
16243;DHT22;11719;51.052;6.982;2024-02-04T14:58:41;14.50;99.90
16243;DHT22;11719;51.052;6.982;2024-02-04T15:01:08;14.50;99.90
16243;DHT22;11719;51.052;6.982;2024-02-04T15:03:34;14.50;99.90
16243;DHT22;11719;51.052;6.982;2024-02-04T15:06:00;14.40;99.90
16243;DHT22;11719;51.052;6.982;2024-02-04T15:08:26;14.40;99.90
16243;DHT22;11719;51.052;6.982;2024-02-04T15:10:51;14.40;99.90
16243;DHT22;11719;51.052;6.982;2024-02-04T15:13:17;14.40;99.90
16243;DHT22;11719;51.052;6.982;2024-02-04T15:15:43;14.40;99.90
16243;DHT22;11719;51.052;6.982;2024-02-04T15:18:10;14.40;99.90
16243;DHT22;11719;51.052;6.982;2024-02-04T15:20:36;14.50;99.90
16243;DHT22;11719;51.052;6.982;2024-02-04T15:23:02;14.50;99.90
16243;DHT22;11719;51.052;6.982;2024-02-04T15:25:29;14.50;99.90
16243;DHT22;11719;51.052;6.982;2024-02-04T15:27:56;14.50;99.90
16243;DHT22;11719;51.052;6.982;2024-02-04T15:30:22;14.40;99.90
16243;DHT22;11719;51.052;6.982;2024-02-04T15:32:48;14.40;99.90
16243;DHT22;11719;51.052;6.982;2024-02-04T15:35:17;14.50;99.90
16243;DHT22;11719;51.052;6.982;2024-02-04T15:37:43;14.50;99.90
16243;DHT22;11719;51.052;6.982;2024-02-04T15:40:11;14.50;99.90
16243;DHT22;11719;51.052;6.982;2024-02-04T15:42:37;14.60;99.90
16243;DHT22;11719;51.052;6.982;2024-02-04T15:45:03;14.50;99.90
16243;DHT22;11719;51.052;6.982;2024-02-04T15:47:30;14.50;99.90
16243;DHT22;11719;51.052;6.982;2024-02-04T15:49:57;14.40;99.90
16243;DHT22;11719;51.052;6.982;2024-02-04T15:52:24;14.50;99.90
16243;DHT22;11719;51.052;6.982;2024-02-04T15:54:50;14.60;99.90
16243;DHT22;11719;51.052;6.982;2024-02-04T15:57:20;14.50;99.90
16243;DHT22;11719;51.052;6.982;2024-02-04T15:59:51;14.60;99.90